CYZFCYHY

Guest
Details From CYZF - YELLOWKNIFE
To CYHY - HAY RIVER
Flight Number -
Tags generated
Created
Modified
Stats Distance 105 nm / 194 km
Max Altitude 10,700 ft / 3,261 m
Waypoints 3
Social Downloads 5
Likes 0
Share VATSIM

Download

Looking for another format? Having issues loading an existing format? Contact us
Advertisement - Login to hide

Notes

Basic altitude profile: - Ascent Rate: 2500ft/min - Ascent Speed: 250kts - Cruise Altitude: 35000ft - Cruise Speed: 420kts - Descent Rate: 1500ft/min - Descent Speed: 250kts Options: - Use NATs: yes - Use PACOTS: yes - Use low airways: yes - Use high airways: yes

Route

CYZF NAKTO CYHY

ID Type Via Altitude Latitude Longitude Leg Dist Tot Dist Heading (true) Name
O CYZF APT - 0 ft / 0 m 62.46567˚ -114.44142˚ - 0 nm - YELLOWKNIFE
NAKTO FIX - 10,700 ft / 3,261 m 61.69444˚ -115.10222˚ 49 nm 49 nm 202° / 202° -
O CYHY APT - 0 ft / 0 m 60.84062˚ -115.78424˚ 54 nm 104 nm 201° / 201° HAY RIVER

Altitude Profile

Advertisement - Login to hide

CYZF

Details ICAO CYZF (YZF)
Name YELLOWKNIFE
Region Canada
Timezone America/Yellowknife (UTC-7.0)
Stats Elevation 675 ft / 206 m (AMSL)
Location 62.465666° -114.441417°
Runways 2
Magnetic Variation 16.583° E

METAR

CYZF 170400Z 15018G24KT 8SM -SN DRSN OVC013 M12/M14 A2938 RMK SC8 SLP973

Decode

TAF

TAF TAF CYZF 162338Z 1700/1724 13010KT 11/2SM -SN BR OVC004 TEMPO 1700/1705 6SM BR SCT004 OVC010 FM170500 13012KT 5SM -SN SCT006 OVC020 TEMPO 1705/1710 2SM -SHSN BKN006 OVC020 FM171000 15012KT P6SM -SN SCT012 BKN040 FM171500 16008KT P6SM -SN SCT008 BKN015 BECMG 1716/1718 30008KT RMK NXT FCST BY 170600Z

Decode

Departure Runways

ID Width Length Bearing (true) Bearing (mag) Surface Threshold Offset Overrun Length
09 150 ft / 46 m 4,902 ft / 1,494 m 116.52° 99.94° Asphalt 0 ft / 0 m 0 ft / 0 m
15 150 ft / 46 m 7,441 ft / 2,268 m 175.66° 159.08° Asphalt 0 ft / 0 m 0 ft / 0 m
27 150 ft / 46 m 4,902 ft / 1,494 m 296.54° 279.96° Asphalt 0 ft / 0 m 0 ft / 0 m
33 150 ft / 46 m 7,441 ft / 2,268 m 355.67° 339.09° Asphalt 0 ft / 0 m 0 ft / 0 m

CYHY

Details ICAO CYHY (YHY)
Name HAY RIVER
Region Canada
Timezone America/Yellowknife (UTC-7.0)
Stats Elevation 543 ft / 166 m (AMSL)
Location 60.840621° -115.784243°
Runways 2
Magnetic Variation 16.957° E

METAR

CYHY 170400Z 17015KT 15SM BKN120 BKN140 M07/M09 A2934 RMK AC5AC2 SLP950

Decode

TAF

TAF CYHY 162338Z 1700/1712 16012KT P6SM BKN006 OVC080 TEMPO 1700/1702 SCT006 BKN080 OVC220 FM170200 18012KT P6SM FEW120 PROB30 1702/1704 BKN006 RMK NXT FCST BY 170600Z

Decode

Destination Runways

ID Width Length Bearing (true) Bearing (mag) Surface Threshold Offset Overrun Length
04 150 ft / 46 m 4,043 ft / 1,232 m 66.34° 49.38° Dirt 0 ft / 0 m 0 ft / 0 m
13 150 ft / 46 m 6,056 ft / 1,846 m 156.90° 139.94° Asphalt 0 ft / 0 m 0 ft / 0 m
22 150 ft / 46 m 4,043 ft / 1,232 m 246.36° 229.40° Dirt 0 ft / 0 m 0 ft / 0 m
31 150 ft / 46 m 6,056 ft / 1,846 m 336.92° 319.96° Asphalt 0 ft / 0 m 0 ft / 0 m

Popular Alternatives